Time;durP1;ratioP1;P1;durP2;ratioP2;P2;SDS_P1;SDS_P2;PMS_P1;PMS_P2;Temp;Humidity;BMP_temperature;BMP_pressure;BME280_temperature;BME280_humidity;BME280_pressure;Samples;Min_cycle;Max_cycle;Signal;HPM_P1;HPM_P2
2021/07/12 00:00:15;;;;;;;10.70;9.60;;;;;;;;;;5016961;28;20037;-83
2021/07/12 00:02:40;;;;;;;8.93;8.02;;;;;;;;;;5028168;28;20017;-83
2021/07/12 00:05:07;;;;;;;9.60;8.63;;;;;;;;;;4994244;28;20140;-83
2021/07/12 00:07:33;;;;;;;9.07;8.15;;;;;;;;;;4994572;28;20029;-83
2021/07/12 00:09:58;;;;;;;9.55;8.65;;;;;;;;;;4996454;28;20505;-83
2021/07/12 00:12:24;;;;;;;8.75;7.85;;;;;;;;;;5009928;28;20037;-83
2021/07/12 00:14:50;;;;;;;9.35;8.45;;;;;;;;;;4981561;28;20030;-83
2021/07/12 00:17:15;;;;;;;9.07;8.18;;;;;;;;;;5015071;28;20034;-83
2021/07/12 00:19:41;;;;;;;10.13;9.05;;;;;;;;;;5005069;28;20128;-83
2021/07/12 00:22:06;;;;;;;10.32;9.32;;;;;;;;;;5027456;28;20396;-83
2021/07/12 00:24:32;;;;;;;10.00;9.02;;;;;;;;;;5011367;28;20538;-83
2021/07/12 00:26:57;;;;;;;10.18;9.10;;;;;;;;;;4997455;28;20564;-83
2021/07/12 00:29:23;;;;;;;11.35;10.25;;;;;;;;;;5030841;28;20057;-84
2021/07/12 00:31:48;;;;;;;11.07;9.98;;;;;;;;;;5005978;28;20040;-84
2021/07/12 00:34:14;;;;;;;11.73;10.48;;;;;;;;;;5011188;28;20033;-84
2021/07/12 00:36:39;;;;;;;11.35;9.90;;;;;;;;;;4999657;28;20389;-84
2021/07/12 00:39:05;;;;;;;12.43;11.20;;;;;;;;;;4998149;28;20034;-84
2021/07/12 00:41:31;;;;;;;11.75;10.57;;;;;;;;;;4991050;28;20390;-84
2021/07/12 00:43:56;;;;;;;12.68;11.40;;;;;;;;;;5013173;28;20083;-84
2021/07/12 00:46:22;;;;;;;12.77;11.00;;;;;;;;;;5008661;28;20030;-84
2021/07/12 00:48:48;;;;;;;11.90;10.70;;;;;;;;;;5013204;28;20037;-83
2021/07/12 00:51:13;;;;;;;12.65;11.35;;;;;;;;;;5011694;28;20041;-83
2021/07/12 00:53:39;;;;;;;13.23;11.93;;;;;;;;;;5029185;28;20021;-83
2021/07/12 00:56:05;;;;;;;13.90;12.50;;;;;;;;;;5012730;28;20038;-83
2021/07/12 00:58:31;;;;;;;13.40;12.00;;;;;;;;;;5007986;28;20065;-84
2021/07/12 01:00:59;;;;;;;13.15;11.80;;;;;;;;;;5011943;28;20049;-83
2021/07/12 01:03:25;;;;;;;12.95;11.65;;;;;;;;;;5029784;28;20096;-83
2021/07/12 01:05:52;;;;;;;14.07;12.57;;;;;;;;;;5009126;28;20034;-84
2021/07/12 01:08:18;;;;;;;13.68;12.05;;;;;;;;;;4980476;28;20026;-84
2021/07/12 01:10:55;;;;;;;13.65;12.25;;;;;;;;;;4993839;28;20504;-84
2021/07/12 01:13:35;;;;;;;13.45;12.15;;;;;;;;;;5006227;28;20058;-84
2021/07/12 01:16:26;;;;;;;13.13;11.85;;;;;;;;;;5012270;28;20022;-84
2021/07/12 01:19:33;;;;;;;13.43;12.02;;;;;;;;;;5027570;28;20404;-84
2021/07/12 01:22:37;;;;;;;15.07;13.48;;;;;;;;;;5007898;28;20033;-83
2021/07/12 01:25:11;;;;;;;14.65;13.10;;;;;;;;;;5011656;28;20037;-84
2021/07/12 01:27:57;;;;;;;13.93;12.52;;;;;;;;;;4994703;28;20038;-84
2021/07/12 01:31:02;;;;;;;15.30;13.70;;;;;;;;;;5001000;28;20046;-84
2021/07/12 01:34:10;;;;;;;14.73;13.23;;;;;;;;;;5004736;28;20406;-84
2021/07/12 01:36:44;;;;;;;14.00;12.50;;;;;;;;;;4996469;28;20041;-84
2021/07/12 01:39:18;;;;;;;14.18;12.75;;;;;;;;;;5013309;28;20473;-84
2021/07/12 01:41:48;;;;;;;15.35;13.85;;;;;;;;;;5019923;28;20033;-84
2021/07/12 01:44:38;;;;;;;14.95;13.45;;;;;;;;;;5008943;28;20030;-84
2021/07/12 01:47:07;;;;;;;15.32;13.80;;;;;;;;;;5000183;28;20022;-84
2021/07/12 01:50:10;;;;;;;15.43;13.82;;;;;;;;;;5013400;28;20129;-83
2021/07/12 01:53:03;;;;;;;14.07;12.57;;;;;;;;;;5005338;28;20034;-83
2021/07/12 01:55:36;;;;;;;15.05;13.43;;;;;;;;;;5030744;28;20055;-84
2021/07/12 01:58:16;;;;;;;15.13;13.63;;;;;;;;;;5020933;28;20468;-84
2021/07/12 02:00:46;;;;;;;14.88;13.27;;;;;;;;;;5011762;28;20061;-84
2021/07/12 02:03:15;;;;;;;15.38;13.88;;;;;;;;;;5014058;28;20022;-84
2021/07/12 02:05:42;;;;;;;14.55;13.05;;;;;;;;;;5013444;28;20512;-84
2021/07/12 02:08:09;;;;;;;14.48;13.07;;;;;;;;;;4998795;28;20030;-84
2021/07/12 02:10:36;;;;;;;15.23;13.73;;;;;;;;;;4999837;28;20042;-84
2021/07/12 02:13:03;;;;;;;14.95;13.45;;;;;;;;;;4994897;28;20037;-84
2021/07/12 02:15:29;;;;;;;15.50;13.90;;;;;;;;;;5008659;28;20026;-84
2021/07/12 02:17:56;;;;;;;14.05;12.52;;;;;;;;;;5012384;28;20489;-84
2021/07/12 02:20:25;;;;;;;14.40;12.90;;;;;;;;;;5015494;28;20485;-84
2021/07/12 02:22:53;;;;;;;14.43;12.95;;;;;;;;;;5032063;28;20013;-84
2021/07/12 02:25:19;;;;;;;14.13;12.63;;;;;;;;;;5015045;28;20033;-84
2021/07/12 02:27:45;;;;;;;14.55;13.05;;;;;;;;;;4998810;28;20482;-84
2021/07/12 02:30:11;;;;;;;14.38;12.98;;;;;;;;;;4999330;28;20394;-84
2021/07/12 02:32:38;;;;;;;14.85;13.45;;;;;;;;;;5018274;28;20104;-84
2021/07/12 02:35:09;;;;;;;14.10;12.70;;;;;;;;;;5017143;28;20029;-84
2021/07/12 02:37:38;;;;;;;14.88;13.27;;;;;;;;;;4998983;28;20034;-84
2021/07/12 02:40:07;;;;;;;15.25;13.65;;;;;;;;;;5012290;28;20028;-84
2021/07/12 02:42:34;;;;;;;14.00;12.60;;;;;;;;;;4997903;28;20120;-84
2021/07/12 02:45:01;;;;;;;15.43;13.82;;;;;;;;;;4999529;28;20599;-84
2021/07/12 02:47:26;;;;;;;14.82;13.32;;;;;;;;;;5014888;28;20120;-84
2021/07/12 02:49:52;;;;;;;14.00;12.68;;;;;;;;;;5014929;28;20120;-84
2021/07/12 02:52:21;;;;;;;14.77;13.27;;;;;;;;;;4977211;28;20040;-84
2021/07/12 02:54:49;;;;;;;13.93;12.30;;;;;;;;;;5010379;28;20092;-84
2021/07/12 02:57:14;;;;;;;14.30;12.88;;;;;;;;;;5014424;28;20017;-84
2021/07/12 02:59:40;;;;;;;14.35;12.85;;;;;;;;;;5009595;28;20064;-84
2021/07/12 03:02:05;;;;;;;14.55;13.00;;;;;;;;;;5014103;28;20033;-84
2021/07/12 03:04:32;;;;;;;14.93;13.35;;;;;;;;;;5014971;28;20033;-84
2021/07/12 03:07:01;;;;;;;14.18;12.68;;;;;;;;;;4998421;28;20104;-84
2021/07/12 03:09:33;;;;;;;13.55;12.18;;;;;;;;;;5010392;28;20121;-84
2021/07/12 03:12:06;;;;;;;14.43;12.95;;;;;;;;;;5011271;28;20030;-84
2021/07/12 03:14:33;;;;;;;15.00;13.50;;;;;;;;;;5004817;28;20026;-84
2021/07/12 03:17:01;;;;;;;15.07;13.57;;;;;;;;;;5031681;28;20080;-84
2021/07/12 03:19:30;;;;;;;15.18;13.57;;;;;;;;;;5027954;28;20109;-84
2021/07/12 03:21:59;;;;;;;15.20;13.60;;;;;;;;;;5012968;28;20041;-84
2021/07/12 03:24:28;;;;;;;15.55;13.95;;;;;;;;;;5011201;28;20053;-84
2021/07/12 03:26:54;;;;;;;16.13;14.43;;;;;;;;;;5030019;28;20052;-84
2021/07/12 03:29:22;;;;;;;17.63;15.82;;;;;;;;;;5009703;28;20092;-84
2021/07/12 03:31:47;;;;;;;16.30;14.57;;;;;;;;;;5013919;28;20477;-84
2021/07/12 03:34:15;;;;;;;17.02;15.25;;;;;;;;;;5019354;28;20036;-84
2021/07/12 03:36:43;;;;;;;18.55;16.00;;;;;;;;;;5025626;28;20469;-84
2021/07/12 03:39:08;;;;;;;18.40;16.60;;;;;;;;;;5013334;28;20071;-84
2021/07/12 03:41:37;;;;;;;18.58;16.42;;;;;;;;;;4980696;28;20030;-84
2021/07/12 03:44:03;;;;;;;17.63;15.75;;;;;;;;;;4994275;28;20386;-84
2021/07/12 03:46:29;;;;;;;18.10;15.48;;;;;;;;;;5013559;28;20034;-84
2021/07/12 03:48:54;;;;;;;17.60;15.77;;;;;;;;;;5014139;28;20036;-84
2021/07/12 03:51:22;;;;;;;18.05;16.15;;;;;;;;;;4991422;28;20053;-84
2021/07/12 03:53:47;;;;;;;16.17;14.48;;;;;;;;;;5011794;28;20025;-84
2021/07/12 03:56:13;;;;;;;16.73;15.02;;;;;;;;;;4989184;28;20040;-84
2021/07/12 03:58:38;;;;;;;17.75;15.88;;;;;;;;;;5008419;28;20051;-84
2021/07/12 04:01:04;;;;;;;18.15;16.27;;;;;;;;;;5011122;28;20109;-84
2021/07/12 04:03:30;;;;;;;17.23;15.43;;;;;;;;;;5013636;28;20033;-84
2021/07/12 04:05:55;;;;;;;16.77;15.07;;;;;;;;;;5029228;28;20549;-84
2021/07/12 04:08:21;;;;;;;16.92;15.23;;;;;;;;;;4996768;28;20061;-84
2021/07/12 04:10:46;;;;;;;17.10;15.30;;;;;;;;;;4995262;28;20061;-84
2021/07/12 04:13:13;;;;;;;19.20;16.77;;;;;;;;;;5029309;28;20159;-84
2021/07/12 04:15:39;;;;;;;17.65;15.77;;;;;;;;;;5012626;28;20038;-84
2021/07/12 04:18:05;;;;;;;18.38;16.42;;;;;;;;;;5012727;28;20040;-84
2021/07/12 04:20:31;;;;;;;19.23;17.23;;;;;;;;;;5025962;28;20120;-84
2021/07/12 04:22:59;;;;;;;18.52;16.63;;;;;;;;;;5009858;28;20018;-84
2021/07/12 04:25:24;;;;;;;19.73;17.48;;;;;;;;;;5016269;28;20026;-84
2021/07/12 04:27:50;;;;;;;18.02;16.08;;;;;;;;;;5028665;28;20517;-84
2021/07/12 04:30:16;;;;;;;20.02;17.35;;;;;;;;;;4996508;28;20176;-84
2021/07/12 04:32:42;;;;;;;17.90;16.00;;;;;;;;;;5008760;28;20034;-84
2021/07/12 04:35:08;;;;;;;19.35;17.17;;;;;;;;;;4995489;28;20027;-84
2021/07/12 04:37:33;;;;;;;18.33;16.40;;;;;;;;;;5025319;28;20026;-84
2021/07/12 04:39:59;;;;;;;19.25;16.75;;;;;;;;;;4994347;28;20038;-84
2021/07/12 04:42:24;;;;;;;19.13;17.08;;;;;;;;;;5025596;28;20369;-84
2021/07/12 04:44:50;;;;;;;20.55;18.35;;;;;;;;;;4993559;28;20038;-84
2021/07/12 04:47:15;;;;;;;21.05;18.67;;;;;;;;;;5011483;28;20512;-84
2021/07/12 04:49:40;;;;;;;19.02;17.10;;;;;;;;;;4993192;28;20030;-84
2021/07/12 04:52:06;;;;;;;18.95;16.95;;;;;;;;;;5013648;28;20028;-84
2021/07/12 04:54:32;;;;;;;19.90;17.80;;;;;;;;;;5012018;28;20037;-84
2021/07/12 04:56:58;;;;;;;20.38;18.27;;;;;;;;;;4995606;28;20061;-84
2021/07/12 04:59:28;;;;;;;20.45;18.20;;;;;;;;;;4979146;28;20468;-84
2021/07/12 05:01:55;;;;;;;20.52;18.30;;;;;;;;;;4997764;28;20397;-84
2021/07/12 05:04:21;;;;;;;24.20;21.60;;;;;;;;;;5011109;28;20441;-84
2021/07/12 05:06:47;;;;;;;21.42;19.13;;;;;;;;;;5010356;28;20025;-84
2021/07/12 05:09:12;;;;;;;27.35;20.65;;;;;;;;;;4991791;28;20120;-84
2021/07/12 05:11:38;;;;;;;27.88;22.05;;;;;;;;;;4993785;28;20041;-84
2021/07/12 05:14:05;;;;;;;27.60;23.42;;;;;;;;;;5007213;28;20042;-84
2021/07/12 05:16:32;;;;;;;26.50;23.15;;;;;;;;;;5008369;28;20075;-84
2021/07/12 05:18:58;;;;;;;30.08;25.27;;;;;;;;;;5025008;28;20184;-84
2021/07/12 05:21:23;;;;;;;27.85;24.25;;;;;;;;;;4993312;28;20124;-84
2021/07/12 05:23:48;;;;;;;29.33;24.30;;;;;;;;;;4991931;28;20034;-84
2021/07/12 05:26:14;;;;;;;28.77;23.85;;;;;;;;;;5011655;28;20030;-84
2021/07/12 05:28:39;;;;;;;25.27;22.55;;;;;;;;;;4996266;28;20026;-84
2021/07/12 05:31:06;;;;;;;27.70;24.17;;;;;;;;;;5009502;28;20030;-84
2021/07/12 05:33:32;;;;;;;30.65;27.35;;;;;;;;;;5028474;28;20057;-84
2021/07/12 05:35:57;;;;;;;33.85;26.30;;;;;;;;;;5009121;28;20386;-84
2021/07/12 05:38:23;;;;;;;32.58;26.77;;;;;;;;;;5009503;28;20034;-86
2021/07/12 05:40:49;;;;;;;39.03;28.23;;;;;;;;;;5011006;28;20422;-86
2021/07/12 05:43:14;;;;;;;38.47;26.92;;;;;;;;;;4999262;28;20549;-86
2021/07/12 05:45:40;;;;;;;35.95;27.10;;;;;;;;;;4970265;28;20093;-86
2021/07/12 05:48:06;;;;;;;33.00;26.63;;;;;;;;;;4998508;28;20061;-86
2021/07/12 05:50:32;;;;;;;32.75;25.55;;;;;;;;;;4999064;28;20048;-86
2021/07/12 05:52:57;;;;;;;34.95;26.73;;;;;;;;;;5011837;28;20038;-86
2021/07/12 05:55:22;;;;;;;29.60;25.70;;;;;;;;;;5013476;28;20041;-86
2021/07/12 05:57:48;;;;;;;27.08;24.13;;;;;;;;;;5029338;28;20038;-86
2021/07/12 06:00:14;;;;;;;26.15;22.40;;;;;;;;;;4996066;28;20050;-86
2021/07/12 06:02:41;;;;;;;27.55;24.35;;;;;;;;;;4977873;28;20061;-86
2021/07/12 06:05:07;;;;;;;27.25;23.48;;;;;;;;;;5007000;28;20466;-86
2021/07/12 06:07:34;;;;;;;27.48;23.88;;;;;;;;;;5024089;28;20033;-86
2021/07/12 06:09:59;;;;;;;27.48;24.48;;;;;;;;;;5034815;28;20029;-86
2021/07/12 06:12:24;;;;;;;26.40;23.65;;;;;;;;;;5012279;28;20574;-86
2021/07/12 06:14:50;;;;;;;26.05;23.27;;;;;;;;;;5010942;28;20036;-86
2021/07/12 06:17:15;;;;;;;25.48;22.67;;;;;;;;;;4992175;28;20049;-86
2021/07/12 06:19:41;;;;;;;24.90;22.20;;;;;;;;;;5010620;28;20033;-86
2021/07/12 06:22:06;;;;;;;26.05;22.42;;;;;;;;;;5009169;28;20036;-86
2021/07/12 06:24:32;;;;;;;24.48;21.88;;;;;;;;;;5001773;28;20030;-87
2021/07/12 06:26:57;;;;;;;27.45;22.83;;;;;;;;;;5005015;28;20036;-86
2021/07/12 06:29:23;;;;;;;25.13;21.70;;;;;;;;;;4993581;28;20033;-85
2021/07/12 06:31:49;;;;;;;26.33;23.35;;;;;;;;;;5002557;28;20112;-86
2021/07/12 06:34:14;;;;;;;25.27;21.75;;;;;;;;;;5009980;28;20030;-85
2021/07/12 06:36:40;;;;;;;24.00;21.40;;;;;;;;;;5001229;28;20603;-86
2021/07/12 06:39:06;;;;;;;28.38;21.45;;;;;;;;;;4994722;28;20386;-86
2021/07/12 06:41:31;;;;;;;23.95;20.75;;;;;;;;;;4990588;28;20038;-86
2021/07/12 06:43:57;;;;;;;19.98;17.90;;;;;;;;;;5025613;28;20017;-86
2021/07/12 06:46:22;;;;;;;18.88;16.88;;;;;;;;;;4990003;28;20045;-86
2021/07/12 06:48:48;;;;;;;17.27;15.48;;;;;;;;;;5004089;28;20038;-86
2021/07/12 06:51:13;;;;;;;17.63;15.75;;;;;;;;;;5005294;28;20033;-86
2021/07/12 06:53:39;;;;;;;15.88;14.18;;;;;;;;;;5003083;28;20103;-86
2021/07/12 06:56:05;;;;;;;15.70;13.98;;;;;;;;;;5023185;28;20481;-85
2021/07/12 06:58:31;;;;;;;18.25;13.77;;;;;;;;;;5005555;28;20853;-86
2021/07/12 07:00:56;;;;;;;16.05;13.35;;;;;;;;;;5008256;28;20057;-86
2021/07/12 07:03:22;;;;;;;17.42;13.05;;;;;;;;;;5009082;28;20088;-86
2021/07/12 07:05:48;;;;;;;15.07;12.45;;;;;;;;;;4997363;28;20033;-85
2021/07/12 07:08:13;;;;;;;13.48;12.07;;;;;;;;;;5023227;28;20033;-85
2021/07/12 07:10:39;;;;;;;15.80;12.40;;;;;;;;;;5010867;28;20033;-86
2021/07/12 07:13:04;;;;;;;13.45;11.60;;;;;;;;;;5009023;28;20034;-86
2021/07/12 07:15:30;;;;;;;13.30;11.90;;;;;;;;;;4975645;28;20095;-86
2021/07/12 07:17:55;;;;;;;13.65;12.10;;;;;;;;;;5008059;28;20041;-86
2021/07/12 07:20:21;;;;;;;12.90;11.52;;;;;;;;;;5011621;28;20041;-86
2021/07/12 07:22:46;;;;;;;13.85;10.63;;;;;;;;;;4992225;28;20189;-85
2021/07/12 07:25:12;;;;;;;11.73;9.85;;;;;;;;;;5008538;28;20029;-86
2021/07/12 07:27:38;;;;;;;11.05;9.88;;;;;;;;;;5009811;28;20132;-85
2021/07/12 07:30:05;;;;;;;11.57;10.13;;;;;;;;;;5024617;28;20508;-86
2021/07/12 07:32:31;;;;;;;11.43;9.45;;;;;;;;;;5009696;28;20049;-86
2021/07/12 07:34:56;;;;;;;10.82;9.00;;;;;;;;;;4994695;28;20042;-86
2021/07/12 07:37:22;;;;;;;12.35;10.05;;;;;;;;;;5001800;28;20646;-86
2021/07/12 07:39:47;;;;;;;11.02;9.15;;;;;;;;;;5006547;28;20097;-86
2021/07/12 07:42:12;;;;;;;11.02;8.82;;;;;;;;;;5021754;28;20075;-86
2021/07/12 07:44:38;;;;;;;7.57;5.88;;;;;;;;;;5008802;28;20130;-86
2021/07/12 07:47:04;;;;;;;9.27;7.35;;;;;;;;;;4991132;28;20041;-86
2021/07/12 07:49:31;;;;;;;9.60;7.90;;;;;;;;;;5008513;28;20036;-86
2021/07/12 07:51:57;;;;;;;9.48;7.18;;;;;;;;;;5007595;28;20044;-86
2021/07/12 07:54:22;;;;;;;8.77;7.20;;;;;;;;;;5000589;28;20034;-86
2021/07/12 07:56:48;;;;;;;8.77;6.43;;;;;;;;;;5004876;28;20038;-86
2021/07/12 07:59:14;;;;;;;8.20;6.30;;;;;;;;;;4977384;28;20031;-86
2021/07/12 08:01:41;;;;;;;7.63;6.43;;;;;;;;;;4996228;28;20025;-86
2021/07/12 08:04:06;;;;;;;9.50;6.13;;;;;;;;;;5006541;28;20076;-86
2021/07/12 08:06:31;;;;;;;6.25;4.95;;;;;;;;;;4988518;28;21722;-86
2021/07/12 08:08:57;;;;;;;7.80;5.70;;;;;;;;;;5006879;28;20026;-86
2021/07/12 08:11:22;;;;;;;9.13;5.70;;;;;;;;;;5008575;28;20165;-85
2021/07/12 08:13:48;;;;;;;8.77;5.40;;;;;;;;;;5002487;28;20034;-86
2021/07/12 08:16:13;;;;;;;7.15;5.20;;;;;;;;;;5005741;28;20033;-85
2021/07/12 08:18:39;;;;;;;6.00;4.65;;;;;;;;;;5000534;28;20034;-85
2021/07/12 08:21:06;;;;;;;6.28;5.05;;;;;;;;;;4993844;28;20478;-85
2021/07/12 08:23:32;;;;;;;6.80;5.35;;;;;;;;;;5018151;28;20026;-86
2021/07/12 08:25:57;;;;;;;7.00;5.22;;;;;;;;;;5010230;28;20083;-85
2021/07/12 08:28:25;;;;;;;7.07;5.05;;;;;;;;;;5008023;28;20489;-86
2021/07/12 08:30:52;;;;;;;6.32;5.00;;;;;;;;;;5011213;28;20061;-86
2021/07/12 08:33:18;;;;;;;7.07;4.60;;;;;;;;;;5010152;28;20088;-86
2021/07/12 08:35:44;;;;;;;4.93;4.18;;;;;;;;;;5009272;28;20042;-86
2021/07/12 08:38:09;;;;;;;4.72;3.85;;;;;;;;;;5011188;28;20034;-86
2021/07/12 08:40:35;;;;;;;7.28;3.88;;;;;;;;;;4992934;28;20221;-85
2021/07/12 08:43:00;;;;;;;7.88;4.78;;;;;;;;;;5012894;28;20026;-86
2021/07/12 08:45:27;;;;;;;4.53;3.28;;;;;;;;;;5011665;28;20045;-86
2021/07/12 08:47:53;;;;;;;5.28;3.30;;;;;;;;;;5027854;28;20022;-86
2021/07/12 08:50:21;;;;;;;6.25;5.07;;;;;;;;;;5011652;28;20385;-85
2021/07/12 08:52:49;;;;;;;7.30;5.70;;;;;;;;;;5001047;28;20034;-85
2021/07/12 08:55:15;;;;;;;4.97;3.85;;;;;;;;;;5007394;28;20545;-85
2021/07/12 08:57:55;;;;;;;9.23;5.85;;;;;;;;;;5005736;28;20128;-86
2021/07/12 09:00:55;;;;;;;5.80;5.13;;;;;;;;;;5026920;28;20140;-85
2021/07/12 09:03:32;;;;;;;5.10;4.13;;;;;;;;;;5005059;28;20061;-85
2021/07/12 09:06:10;;;;;;;3.97;2.88;;;;;;;;;;5025832;28;20773;-85
2021/07/12 09:08:56;;;;;;;4.18;2.92;;;;;;;;;;5011574;28;20499;-85
2021/07/12 09:11:36;;;;;;;4.05;2.97;;;;;;;;;;5000267;28;20033;-85
2021/07/12 09:14:10;;;;;;;3.35;2.83;;;;;;;;;;5020848;28;20045;-85
2021/07/12 09:16:48;;;;;;;4.35;2.70;;;;;;;;;;5022512;28;20022;-85
2021/07/12 09:19:15;;;;;;;6.40;3.25;;;;;;;;;;5006838;28;20032;-85
2021/07/12 09:21:59;;;;;;;5.35;4.00;;;;;;;;;;5006777;28;20088;-85
2021/07/12 09:24:32;;;;;;;5.60;3.58;;;;;;;;;;5002205;28;20497;-85
2021/07/12 09:27:03;;;;;;;5.53;3.50;;;;;;;;;;5013073;28;20030;-85
2021/07/12 09:29:33;;;;;;;4.47;3.10;;;;;;;;;;4996283;28;20498;-85
2021/07/12 09:32:01;;;;;;;4.88;3.17;;;;;;;;;;5026251;28;20025;-85
2021/07/12 09:34:27;;;;;;;5.60;3.58;;;;;;;;;;5002590;28;20041;-85
2021/07/12 09:36:53;;;;;;;4.45;3.60;;;;;;;;;;4996079;28;20034;-85
2021/07/12 09:39:25;;;;;;;4.13;3.25;;;;;;;;;;5008183;28;20358;-85
2021/07/12 09:41:59;;;;;;;5.43;3.40;;;;;;;;;;5011996;28;20106;-85
2021/07/12 09:44:28;;;;;;;6.18;2.95;;;;;;;;;;5010256;28;20022;-85
2021/07/12 09:46:55;;;;;;;3.28;2.78;;;;;;;;;;4985884;28;20041;-85
2021/07/12 09:49:25;;;;;;;3.25;2.53;;;;;;;;;;4971631;28;20041;-85
2021/07/12 09:51:56;;;;;;;5.10;3.90;;;;;;;;;;5008052;28;20030;-85
2021/07/12 09:54:29;;;;;;;5.93;3.20;;;;;;;;;;5028096;28;20034;-84
2021/07/12 09:56:56;;;;;;;4.88;3.25;;;;;;;;;;5025494;28;20025;-85
2021/07/12 09:59:23;;;;;;;7.38;3.30;;;;;;;;;;5006318;28;20561;-84
2021/07/12 10:01:55;;;;;;;4.50;3.50;;;;;;;;;;5023666;28;20489;-85
2021/07/12 10:04:23;;;;;;;5.25;3.28;;;;;;;;;;5008503;28;20474;-85
2021/07/12 10:06:50;;;;;;;4.53;3.10;;;;;;;;;;5009879;28;20029;-85
2021/07/12 10:09:21;;;;;;;5.95;3.90;;;;;;;;;;5001838;28;20390;-84
2021/07/12 10:11:48;;;;;;;6.15;3.47;;;;;;;;;;4997276;28;20031;-84
2021/07/12 10:14:14;;;;;;;4.78;3.45;;;;;;;;;;5009531;28;20026;-84
2021/07/12 10:16:39;;;;;;;4.47;3.47;;;;;;;;;;5010435;28;20435;-84
2021/07/12 10:19:05;;;;;;;5.15;3.42;;;;;;;;;;5007756;28;20029;-84
2021/07/12 10:21:52;;;;;;;7.18;3.70;;;;;;;;;;4991448;28;20041;-85
2021/07/12 10:24:24;;;;;;;4.88;3.90;;;;;;;;;;5011902;28;20036;-85
2021/07/12 10:26:49;;;;;;;5.22;4.45;;;;;;;;;;5022700;28;20037;-85
2021/07/12 10:29:21;;;;;;;6.20;4.20;;;;;;;;;;5012312;28;20033;-85
2021/07/12 10:31:54;;;;;;;5.78;4.50;;;;;;;;;;5029940;28;20068;-85
2021/07/12 10:34:41;;;;;;;5.13;4.50;;;;;;;;;;5026011;28;20045;-84
2021/07/12 10:37:15;;;;;;;7.22;4.90;;;;;;;;;;5019625;28;20363;-85
2021/07/12 10:40:09;;;;;;;6.45;4.90;;;;;;;;;;5013946;28;20041;-85
2021/07/12 10:42:41;;;;;;;6.80;4.60;;;;;;;;;;5009505;28;20045;-85
2021/07/12 10:45:27;;;;;;;5.95;4.80;;;;;;;;;;5014769;28;20040;-85
2021/07/12 10:47:58;;;;;;;6.93;5.80;;;;;;;;;;5006454;28;20050;-84
2021/07/12 10:50:47;;;;;;;6.55;5.90;;;;;;;;;;5028183;28;20037;-85
2021/07/12 10:53:15;;;;;;;7.60;4.90;;;;;;;;;;5004568;28;20462;-85
2021/07/12 10:55:41;;;;;;;6.03;4.55;;;;;;;;;;5029622;28;20037;-85
2021/07/12 10:58:29;;;;;;;5.95;5.35;;;;;;;;;;5028576;28;20089;-85
2021/07/12 11:00:59;;;;;;;6.45;4.95;;;;;;;;;;5012771;28;20112;-85
2021/07/12 11:03:42;;;;;;;5.82;5.05;;;;;;;;;;5014294;28;20026;-85
2021/07/12 11:06:10;;;;;;;6.18;5.40;;;;;;;;;;5023720;28;20030;-85
2021/07/12 11:08:51;;;;;;;5.10;4.55;;;;;;;;;;5013779;28;20037;-84
2021/07/12 11:11:20;;;;;;;6.22;5.05;;;;;;;;;;5008999;28;20112;-84
2021/07/12 11:13:53;;;;;;;6.50;4.63;;;;;;;;;;5028446;28;20045;-84
2021/07/12 11:16:21;;;;;;;4.95;4.15;;;;;;;;;;5029493;28;20029;-84
2021/07/12 11:18:47;;;;;;;4.45;3.88;;;;;;;;;;5022726;28;20064;-84
2021/07/12 11:21:15;;;;;;;5.85;3.78;;;;;;;;;;5030097;28;20026;-84
2021/07/12 11:23:53;;;;;;;4.38;3.72;;;;;;;;;;5014189;28;20022;-84
2021/07/12 11:26:18;;;;;;;5.72;4.15;;;;;;;;;;5011420;28;20025;-85
2021/07/12 11:28:46;;;;;;;5.30;4.00;;;;;;;;;;5012286;28;20044;-85
2021/07/12 11:31:39;;;;;;;5.78;4.45;;;;;;;;;;5012067;28;20033;-85
2021/07/12 11:34:19;;;;;;;8.15;4.15;;;;;;;;;;5006600;28;20026;-85
2021/07/12 11:37:18;;;;;;;5.97;3.78;;;;;;;;;;5026551;28;20030;-85
2021/07/12 11:39:51;;;;;;;4.30;3.50;;;;;;;;;;5007055;28;20544;-85
2021/07/12 11:42:22;;;;;;;5.13;3.83;;;;;;;;;;5023738;28;20385;-85
2021/07/12 11:45:01;;;;;;;4.47;3.90;;;;;;;;;;5020263;28;20033;-85
2021/07/12 11:47:38;;;;;;;6.32;3.65;;;;;;;;;;5025310;28;20040;-85
2021/07/12 11:50:09;;;;;;;4.57;3.35;;;;;;;;;;5026367;28;20149;-85
2021/07/12 11:52:36;;;;;;;3.90;3.33;;;;;;;;;;5017732;28;20037;-85
2021/07/12 11:55:08;;;;;;;4.60;3.50;;;;;;;;;;5020885;28;20083;-85
2021/07/12 11:57:36;;;;;;;4.80;3.40;;;;;;;;;;5019647;28;20026;-85
2021/07/12 12:00:06;;;;;;;6.55;3.22;;;;;;;;;;5005768;28;20040;-85
2021/07/12 12:02:32;;;;;;;3.90;3.20;;;;;;;;;;5005407;28;20089;-85
2021/07/12 12:05:00;;;;;;;5.18;3.17;;;;;;;;;;5008084;28;20124;-85
2021/07/12 12:07:41;;;;;;;5.18;3.28;;;;;;;;;;5002927;28;20049;-85
2021/07/12 12:10:09;;;;;;;7.50;3.30;;;;;;;;;;5006741;28;20041;-85
2021/07/12 12:12:47;;;;;;;4.95;2.90;;;;;;;;;;5008048;28;20034;-85
2021/07/12 12:15:23;;;;;;;4.43;3.10;;;;;;;;;;5003354;28;20120;-85
2021/07/12 12:18:00;;;;;;;5.15;2.67;;;;;;;;;;5024027;28;20513;-84
2021/07/12 12:20:31;;;;;;;4.95;2.78;;;;;;;;;;5008959;28;20568;-84
2021/07/12 12:23:02;;;;;;;3.58;2.53;;;;;;;;;;5000341;28;20034;-85
2021/07/12 12:25:30;;;;;;;5.13;2.75;;;;;;;;;;5021078;28;20034;-85
2021/07/12 12:27:56;;;;;;;4.60;2.97;;;;;;;;;;5006956;28;20494;-85
2021/07/12 12:30:22;;;;;;;5.68;3.10;;;;;;;;;;5003226;28;20059;-85
2021/07/12 12:32:56;;;;;;;4.20;2.92;;;;;;;;;;4999809;28;20075;-85
2021/07/12 12:35:24;;;;;;;6.78;3.10;;;;;;;;;;5012354;28;20473;-85
2021/07/12 12:37:52;;;;;;;3.90;3.03;;;;;;;;;;5022586;28;20116;-85
2021/07/12 12:40:24;;;;;;;3.45;2.70;;;;;;;;;;4990674;28;20392;-85
2021/07/12 12:42:52;;;;;;;4.95;2.90;;;;;;;;;;5020419;28;20038;-85
2021/07/12 12:45:30;;;;;;;6.90;2.83;;;;;;;;;;5027294;28;20033;-85
2021/07/12 12:47:56;;;;;;;4.57;2.80;;;;;;;;;;5020373;28;20030;-85
2021/07/12 12:50:23;;;;;;;4.63;3.05;;;;;;;;;;5019318;28;20603;-85
2021/07/12 12:52:49;;;;;;;4.35;3.08;;;;;;;;;;5002813;28;20035;-85
2021/07/12 12:55:16;;;;;;;4.57;3.15;;;;;;;;;;5019834;28;20058;-85
2021/07/12 12:57:46;;;;;;;9.32;3.92;;;;;;;;;;5021021;28;20477;-86
2021/07/12 13:00:14;;;;;;;6.97;4.10;;;;;;;;;;5023594;28;20034;-85
2021/07/12 13:02:44;;;;;;;6.35;3.95;;;;;;;;;;5019372;28;20056;-85
2021/07/12 13:05:21;;;;;;;4.63;3.72;;;;;;;;;;5004514;28;20521;-86
2021/07/12 13:07:55;;;;;;;4.90;3.35;;;;;;;;;;5002354;28;20029;-85
2021/07/12 13:10:28;;;;;;;4.95;3.30;;;;;;;;;;5000080;28;20069;-85
2021/07/12 13:13:07;;;;;;;5.47;3.80;;;;;;;;;;5017106;28;20497;-86
2021/07/12 13:15:35;;;;;;;4.85;4.15;;;;;;;;;;5006392;28;20087;-85
2021/07/12 13:18:06;;;;;;;5.95;4.13;;;;;;;;;;5022210;28;20088;-85
2021/07/12 13:20:31;;;;;;;8.30;3.80;;;;;;;;;;5004158;28;20033;-85
2021/07/12 13:23:02;;;;;;;6.70;3.92;;;;;;;;;;4999685;28;20026;-85
2021/07/12 13:25:34;;;;;;;6.53;4.30;;;;;;;;;;4998097;28;20552;-85
2021/07/12 13:28:05;;;;;;;6.18;4.22;;;;;;;;;;5003424;28;20049;-84
2021/07/12 13:30:40;;;;;;;5.47;3.90;;;;;;;;;;5021784;28;20092;-86
2021/07/12 13:33:07;;;;;;;5.80;3.80;;;;;;;;;;5006794;28;20030;-86
2021/07/12 13:35:33;;;;;;;6.18;3.38;;;;;;;;;;5021332;28;20077;-86
2021/07/12 13:38:02;;;;;;;5.60;3.80;;;;;;;;;;5006449;28;20584;-86
2021/07/12 13:40:29;;;;;;;4.93;3.60;;;;;;;;;;5017671;28;20034;-86
2021/07/12 13:42:55;;;;;;;8.48;3.70;;;;;;;;;;5006060;28;20033;-86
2021/07/12 13:45:23;;;;;;;7.93;3.92;;;;;;;;;;4986258;28;20044;-85
2021/07/12 13:47:49;;;;;;;6.85;3.75;;;;;;;;;;5013312;28;20490;-86
2021/07/12 13:50:22;;;;;;;6.32;4.00;;;;;;;;;;5011191;28;20096;-85
2021/07/12 13:52:48;;;;;;;5.47;3.70;;;;;;;;;;5000650;28;20030;-85
2021/07/12 13:55:15;;;;;;;6.13;3.60;;;;;;;;;;4988369;28;20841;-85
2021/07/12 13:57:41;;;;;;;6.13;3.60;;;;;;;;;;5003701;28;20124;-86
2021/07/12 14:00:09;;;;;;;6.63;3.70;;;;;;;;;;5007738;28;20042;-85
2021/07/12 14:02:35;;;;;;;7.35;3.67;;;;;;;;;;5005472;28;20081;-85
2021/07/12 14:05:00;;;;;;;7.38;4.03;;;;;;;;;;5007456;28;20476;-85
2021/07/12 14:07:26;;;;;;;7.30;3.95;;;;;;;;;;5025498;28;20129;-85
2021/07/12 14:09:52;;;;;;;5.53;4.15;;;;;;;;;;5000670;28;20057;-85
2021/07/12 14:12:18;;;;;;;9.45;4.43;;;;;;;;;;5008527;28;20029;-85
2021/07/12 14:14:47;;;;;;;6.38;4.18;;;;;;;;;;4993099;28;20092;-85
2021/07/12 14:17:14;;;;;;;5.85;4.20;;;;;;;;;;5010244;28;20087;-86
2021/07/12 14:19:39;;;;;;;5.60;4.35;;;;;;;;;;5008208;28;20034;-86
2021/07/12 14:22:06;;;;;;;6.57;4.15;;;;;;;;;;5011332;28;20029;-85
2021/07/12 14:24:35;;;;;;;8.23;5.03;;;;;;;;;;5009394;28;20049;-89
2021/07/12 14:27:04;;;;;;;7.85;4.40;;;;;;;;;;5009888;28;20112;-91
2021/07/12 14:29:30;;;;;;;8.43;4.55;;;;;;;;;;5024821;28;20061;-91
2021/07/12 14:32:08;;;;;;;7.53;4.18;;;;;;;;;;4991127;28;20030;-90
2021/07/12 14:34:39;;;;;;;5.68;3.78;;;;;;;;;;5005011;28;20047;-90
2021/07/12 14:37:12;;;;;;;7.82;4.82;;;;;;;;;;5006674;28;20041;-90
2021/07/12 14:39:46;;;;;;;6.20;4.80;;;;;;;;;;4994782;28;20061;-90
2021/07/12 14:42:17;;;;;;;7.78;4.57;;;;;;;;;;5003074;28;20034;-90